sensor_id;sensor_type;location;lat;lon;timestamp;pressure;altitude;pressure_sealevel;temperature;humidity
45937;BME280;31649;46.510;6.498;2023-03-21T06:53:33;95496.28;;;7.48;68.49
45937;BME280;31649;46.510;6.498;2023-03-21T06:56:08;95499.81;;;7.47;68.74
45937;BME280;31649;46.510;6.498;2023-03-21T06:58:37;95498.47;;;7.52;68.54
45937;BME280;31649;46.510;6.498;2023-03-21T07:01:07;95499.28;;;7.63;68.67
45937;BME280;31649;46.510;6.498;2023-03-21T07:03:36;95503.06;;;7.69;69.07
45937;BME280;31649;46.510;6.498;2023-03-21T07:06:05;95505.13;;;7.65;69.99
45937;BME280;31649;46.510;6.498;2023-03-21T07:08:31;95489.84;;;7.72;69.12
45937;BME280;31649;46.510;6.498;2023-03-21T07:10:57;95496.53;;;7.74;68.43
45937;BME280;31649;46.510;6.498;2023-03-21T07:13:23;95494.72;;;7.85;68.14
45937;BME280;31649;46.510;6.498;2023-03-21T07:15:49;95499.88;;;7.95;68.07
45937;BME280;31649;46.510;6.498;2023-03-21T07:18:15;95504.09;;;8.06;67.43
45937;BME280;31649;46.510;6.498;2023-03-21T07:20:40;95500.25;;;8.10;67.22
45937;BME280;31649;46.510;6.498;2023-03-21T07:23:12;95496.81;;;8.19;66.96
45937;BME280;31649;46.510;6.498;2023-03-21T07:25:37;95511.91;;;8.34;66.61
45937;BME280;31649;46.510;6.498;2023-03-21T07:28:04;95514.97;;;8.47;66.58
45937;BME280;31649;46.510;6.498;2023-03-21T07:30:33;95509.50;;;8.61;66.41
45937;BME280;31649;46.510;6.498;2023-03-21T07:32:59;95511.84;;;8.82;66.13
45937;BME280;31649;46.510;6.498;2023-03-21T07:35:25;95511.56;;;8.85;65.85
45937;BME280;31649;46.510;6.498;2023-03-21T07:37:50;95513.41;;;8.93;66.19
45937;BME280;31649;46.510;6.498;2023-03-21T07:40:16;95508.19;;;9.03;66.00
45937;BME280;31649;46.510;6.498;2023-03-21T07:42:42;95507.66;;;9.17;66.06
45937;BME280;31649;46.510;6.498;2023-03-21T07:45:09;95516.41;;;9.35;65.89
45937;BME280;31649;46.510;6.498;2023-03-21T07:47:35;95511.00;;;9.28;65.31
45937;BME280;31649;46.510;6.498;2023-03-21T07:50:01;95512.78;;;9.27;65.30
45937;BME280;31649;46.510;6.498;2023-03-21T07:52:28;95510.09;;;9.37;65.15
45937;BME280;31649;46.510;6.498;2023-03-21T07:54:54;95502.78;;;9.51;64.35
45937;BME280;31649;46.510;6.498;2023-03-21T07:57:20;95506.94;;;9.70;64.44
45937;BME280;31649;46.510;6.498;2023-03-21T07:59:45;95507.06;;;9.87;63.87
45937;BME280;31649;46.510;6.498;2023-03-21T08:02:15;95502.63;;;10.06;63.11
45937;BME280;31649;46.510;6.498;2023-03-21T08:04:42;95506.06;;;10.06;62.58
45937;BME280;31649;46.510;6.498;2023-03-21T08:07:07;95504.41;;;10.32;62.80
45937;BME280;31649;46.510;6.498;2023-03-21T08:09:33;95506.16;;;10.23;62.65
45937;BME280;31649;46.510;6.498;2023-03-21T08:11:59;95512.16;;;10.24;62.11
45937;BME280;31649;46.510;6.498;2023-03-21T08:14:24;95512.78;;;10.17;62.48
45937;BME280;31649;46.510;6.498;2023-03-21T08:16:50;95507.22;;;9.59;62.39
45937;BME280;31649;46.510;6.498;2023-03-21T08:19:15;95511.34;;;9.70;63.27
45937;BME280;31649;46.510;6.498;2023-03-21T08:21:43;95509.50;;;9.44;62.14
45937;BME280;31649;46.510;6.498;2023-03-21T08:24:08;95511.22;;;9.35;62.15
45937;BME280;31649;46.510;6.498;2023-03-21T08:26:34;95502.91;;;9.49;62.03
45937;BME280;31649;46.510;6.498;2023-03-21T08:28:59;95499.69;;;9.74;61.77
45937;BME280;31649;46.510;6.498;2023-03-21T08:31:25;95503.75;;;9.77;59.99
45937;BME280;31649;46.510;6.498;2023-03-21T08:33:52;95506.44;;;9.67;60.38
45937;BME280;31649;46.510;6.498;2023-03-21T08:36:21;95512.31;;;9.69;60.23
45937;BME280;31649;46.510;6.498;2023-03-21T08:38:47;95509.13;;;9.57;60.18
45937;BME280;31649;46.510;6.498;2023-03-21T08:41:14;95510.50;;;9.87;59.89
45937;BME280;31649;46.510;6.498;2023-03-21T08:43:39;95497.59;;;9.78;58.95
45937;BME280;31649;46.510;6.498;2023-03-21T08:46:05;95502.03;;;9.85;58.49
45937;BME280;31649;46.510;6.498;2023-03-21T08:48:31;95506.94;;;9.89;58.72
45937;BME280;31649;46.510;6.498;2023-03-21T08:50:59;95499.53;;;9.75;58.17
45937;BME280;31649;46.510;6.498;2023-03-21T08:53:25;95500.44;;;9.66;59.39
45937;BME280;31649;46.510;6.498;2023-03-21T08:55:50;95497.59;;;9.78;59.12
45937;BME280;31649;46.510;6.498;2023-03-21T08:58:16;95495.94;;;9.50;57.65
45937;BME280;31649;46.510;6.498;2023-03-21T09:00:41;95496.72;;;9.69;57.96
45937;BME280;31649;46.510;6.498;2023-03-21T09:03:07;95500.41;;;9.84;58.14
45937;BME280;31649;46.510;6.498;2023-03-21T09:05:32;95497.00;;;9.84;57.68
45937;BME280;31649;46.510;6.498;2023-03-21T09:07:58;95498.38;;;9.70;58.65
45937;BME280;31649;46.510;6.498;2023-03-21T09:10:26;95498.72;;;10.02;57.82
45937;BME280;31649;46.510;6.498;2023-03-21T09:12:53;95495.88;;;9.86;57.16
45937;BME280;31649;46.510;6.498;2023-03-21T09:15:20;95487.66;;;9.99;57.84
45937;BME280;31649;46.510;6.498;2023-03-21T09:17:46;95487.88;;;10.06;57.45
45937;BME280;31649;46.510;6.498;2023-03-21T09:20:14;95499.28;;;10.49;57.13
45937;BME280;31649;46.510;6.498;2023-03-21T09:22:49;95502.34;;;10.44;57.22
45937;BME280;31649;46.510;6.498;2023-03-21T09:25:17;95498.19;;;10.25;57.15
45937;BME280;31649;46.510;6.498;2023-03-21T09:27:43;95498.88;;;10.35;57.30
45937;BME280;31649;46.510;6.498;2023-03-21T09:30:12;95492.50;;;10.56;56.24
45937;BME280;31649;46.510;6.498;2023-03-21T09:32:38;95494.50;;;10.36;56.42
45937;BME280;31649;46.510;6.498;2023-03-21T09:35:05;95492.88;;;10.61;56.32
45937;BME280;31649;46.510;6.498;2023-03-21T09:37:32;95491.13;;;10.70;56.47
45937;BME280;31649;46.510;6.498;2023-03-21T09:39:58;95489.81;;;10.66;56.00
45937;BME280;31649;46.510;6.498;2023-03-21T09:47:28;95492.41;;;10.04;56.09
45937;BME280;31649;46.510;6.498;2023-03-21T09:50:11;95491.19;;;9.90;57.63
45937;BME280;31649;46.510;6.498;2023-03-21T09:55:24;95490.06;;;10.54;56.76
45937;BME280;31649;46.510;6.498;2023-03-21T09:58:03;95493.59;;;10.45;57.14
45937;BME280;31649;46.510;6.498;2023-03-21T10:00:37;95496.09;;;10.55;56.93
45937;BME280;31649;46.510;6.498;2023-03-21T10:03:27;95498.63;;;10.90;56.33
45937;BME280;31649;46.510;6.498;2023-03-21T10:05:52;95488.59;;;10.95;56.77
45937;BME280;31649;46.510;6.498;2023-03-21T10:08:31;95486.03;;;11.29;56.20
45937;BME280;31649;46.510;6.498;2023-03-21T10:11:23;95479.53;;;11.58;56.17
45937;BME280;31649;46.510;6.498;2023-03-21T10:14:27;95478.97;;;11.88;55.88
45937;BME280;31649;46.510;6.498;2023-03-21T10:16:56;95470.16;;;12.05;55.87
45937;BME280;31649;46.510;6.498;2023-03-21T10:19:23;95470.66;;;12.17;56.04
45937;BME280;31649;46.510;6.498;2023-03-21T10:21:51;95462.91;;;12.41;55.77
45937;BME280;31649;46.510;6.498;2023-03-21T10:24:25;95461.38;;;12.55;55.72
45937;BME280;31649;46.510;6.498;2023-03-21T10:26:53;95463.28;;;12.70;55.49
45937;BME280;31649;46.510;6.498;2023-03-21T10:29:25;95454.50;;;12.62;55.54
45937;BME280;31649;46.510;6.498;2023-03-21T10:31:52;95461.66;;;12.69;55.79
45937;BME280;31649;46.510;6.498;2023-03-21T10:34:54;95463.22;;;11.72;54.05
45937;BME280;31649;46.510;6.498;2023-03-21T10:37:22;95462.41;;;11.55;54.34
45937;BME280;31649;46.510;6.498;2023-03-21T10:39:57;95454.78;;;11.62;54.56
45937;BME280;31649;46.510;6.498;2023-03-21T10:42:28;95458.88;;;12.30;54.23
45937;BME280;31649;46.510;6.498;2023-03-21T10:44:57;95459.22;;;12.27;53.87
45937;BME280;31649;46.510;6.498;2023-03-21T10:47:29;95460.47;;;12.39;54.35
45937;BME280;31649;46.510;6.498;2023-03-21T10:50:11;95460.97;;;12.35;54.07
45937;BME280;31649;46.510;6.498;2023-03-21T10:52:50;95459.44;;;11.92;53.54
45937;BME280;31649;46.510;6.498;2023-03-21T10:55:25;95452.09;;;12.12;54.46
45937;BME280;31649;46.510;6.498;2023-03-21T10:57:59;95454.50;;;12.22;54.84
45937;BME280;31649;46.510;6.498;2023-03-21T11:00:29;95455.06;;;12.49;53.54
45937;BME280;31649;46.510;6.498;2023-03-21T11:02:59;95454.31;;;12.24;53.89
45937;BME280;31649;46.510;6.498;2023-03-21T11:05:38;95446.06;;;12.12;53.90
45937;BME280;31649;46.510;6.498;2023-03-21T11:08:13;95450.72;;;12.33;53.86
45937;BME280;31649;46.510;6.498;2023-03-21T11:13:35;95446.50;;;12.64;54.35
45937;BME280;31649;46.510;6.498;2023-03-21T11:18:43;95435.53;;;12.77;53.62
45937;BME280;31649;46.510;6.498;2023-03-21T11:21:11;95431.53;;;12.90;53.54
45937;BME280;31649;46.510;6.498;2023-03-21T11:23:43;95433.44;;;12.96;52.43
45937;BME280;31649;46.510;6.498;2023-03-21T11:26:20;95432.22;;;12.83;52.80
45937;BME280;31649;46.510;6.498;2023-03-21T11:28:50;95429.91;;;13.12;52.60
45937;BME280;31649;46.510;6.498;2023-03-21T11:31:16;95424.44;;;12.98;53.35
45937;BME280;31649;46.510;6.498;2023-03-21T11:33:53;95423.28;;;13.01;53.13
45937;BME280;31649;46.510;6.498;2023-03-21T11:36:32;95421.47;;;12.78;53.19
45937;BME280;31649;46.510;6.498;2023-03-21T11:39:12;95405.69;;;12.71;52.67
45937;BME280;31649;46.510;6.498;2023-03-21T11:41:41;95415.88;;;12.90;52.90
45937;BME280;31649;46.510;6.498;2023-03-21T11:44:26;95402.38;;;12.77;52.76
45937;BME280;31649;46.510;6.498;2023-03-21T11:46:52;95402.91;;;12.96;53.77
45937;BME280;31649;46.510;6.498;2023-03-21T11:49:20;95405.50;;;13.20;52.45
45937;BME280;31649;46.510;6.498;2023-03-21T11:54:36;95399.84;;;13.16;51.68
45937;BME280;31649;46.510;6.498;2023-03-21T12:02:54;95390.50;;;12.98;52.57
45937;BME280;31649;46.510;6.498;2023-03-21T12:05:51;95381.00;;;13.06;53.00
45937;BME280;31649;46.510;6.498;2023-03-21T12:11:10;95370.09;;;13.02;52.59
45937;BME280;31649;46.510;6.498;2023-03-21T12:19:11;95366.53;;;12.95;52.72
45937;BME280;31649;46.510;6.498;2023-03-21T12:22:00;95359.47;;;13.04;52.71
45937;BME280;31649;46.510;6.498;2023-03-21T12:24:32;95359.47;;;13.04;53.07
45937;BME280;31649;46.510;6.498;2023-03-21T12:27:14;95351.69;;;13.34;52.64
45937;BME280;31649;46.510;6.498;2023-03-21T12:29:54;95349.91;;;13.50;52.34
45937;BME280;31649;46.510;6.498;2023-03-21T12:45:58;95344.25;;;13.61;52.55
45937;BME280;31649;46.510;6.498;2023-03-21T12:48:32;95345.28;;;13.37;52.40
45937;BME280;31649;46.510;6.498;2023-03-21T12:51:01;95339.81;;;13.31;52.56
45937;BME280;31649;46.510;6.498;2023-03-21T12:56:43;95332.13;;;13.15;53.79
45937;BME280;31649;46.510;6.498;2023-03-21T12:59:33;95326.63;;;13.25;53.76
45937;BME280;31649;46.510;6.498;2023-03-21T13:07:46;95319.63;;;12.86;53.04
45937;BME280;31649;46.510;6.498;2023-03-21T13:10:16;95315.34;;;12.94;53.27
45937;BME280;31649;46.510;6.498;2023-03-21T13:21:03;95309.34;;;12.85;54.11
45937;BME280;31649;46.510;6.498;2023-03-21T13:23:35;95308.84;;;12.90;54.36
45937;BME280;31649;46.510;6.498;2023-03-21T13:26:02;95302.03;;;13.04;54.17
45937;BME280;31649;46.510;6.498;2023-03-21T13:28:30;95310.13;;;13.09;53.82
45937;BME280;31649;46.510;6.498;2023-03-21T13:31:17;95311.53;;;12.96;52.76
45937;BME280;31649;46.510;6.498;2023-03-21T13:33:48;95306.28;;;12.81;53.97
45937;BME280;31649;46.510;6.498;2023-03-21T13:36:21;95301.66;;;12.68;53.85
45937;BME280;31649;46.510;6.498;2023-03-21T13:38:51;95305.16;;;12.60;53.37
45937;BME280;31649;46.510;6.498;2023-03-21T13:41:35;95297.00;;;12.55;53.72
45937;BME280;31649;46.510;6.498;2023-03-21T13:48:58;95293.19;;;12.42;53.48
45937;BME280;31649;46.510;6.498;2023-03-21T14:01:59;95282.25;;;12.71;54.43
45937;BME280;31649;46.510;6.498;2023-03-21T14:04:28;95283.66;;;12.73;54.39
